Terminal Aerodrome Forecast
Issued by NWS

Home | Current Version | Previous Version | Graphics & Text | Print | Product List | Glossary On
Versions: 1 2 3 4 5 6 7 8 9 10 11 12 13 14 15 16 17
000
FTUS43 KMPX 250315 AAA
TAFAXN
TAF AMD
KAXN 250315Z 2503/2524 04009KT 2SM -SN SCT007 OVC012
      TEMPO 2504/2507 4SM -SN OVC007
     FM250700 03012KT P6SM BKN025
     FM251100 03007KT P6SM SCT025
     FM252200 22005KT P6SM BKN200=

USA.gov is the U.S. government's official web portal to all federal, state and local government web resources and services.